createdAt,value
2018-12-31T00:02:11.017Z,4.80
2018-12-31T00:04:41.692Z,5.10
2018-12-31T00:07:12.374Z,4.90
2018-12-31T00:09:43.123Z,4.90
2018-12-31T00:12:13.828Z,4.90
2018-12-31T00:14:44.505Z,5.00
2018-12-31T00:17:15.227Z,5.00
2018-12-31T00:19:45.973Z,5.00
2018-12-31T00:22:16.764Z,5.10
2018-12-31T00:24:47.556Z,5.10
2018-12-31T00:27:18.307Z,5.10
2018-12-31T00:29:49.066Z,5.10
2018-12-31T00:32:19.812Z,5.00
2018-12-31T00:34:50.619Z,5.00
2018-12-31T00:37:21.343Z,5.10
2018-12-31T00:39:52.040Z,5.10
2018-12-31T00:42:22.759Z,5.10
2018-12-31T00:44:53.450Z,5.10
2018-12-31T00:47:24.364Z,5.10
2018-12-31T00:49:55.153Z,5.10
2018-12-31T00:52:26.128Z,5.00
2018-12-31T00:54:56.855Z,5.10
2018-12-31T00:57:27.571Z,5.10
2018-12-31T00:59:58.248Z,5.10
2018-12-31T01:02:29.062Z,5.10
2018-12-31T01:04:59.776Z,5.00
2018-12-31T01:07:30.495Z,5.00
2018-12-31T01:10:01.204Z,5.10
2018-12-31T01:12:31.898Z,5.10
2018-12-31T01:15:02.565Z,5.10
2018-12-31T01:17:33.319Z,5.10
2018-12-31T01:20:03.968Z,5.10
2018-12-31T01:22:34.835Z,5.10
2018-12-31T01:25:05.812Z,5.20
2018-12-31T01:27:36.591Z,5.10
2018-12-31T01:30:08.096Z,5.10
2018-12-31T01:32:38.777Z,5.10
2018-12-31T01:35:09.532Z,5.00
2018-12-31T01:37:40.183Z,5.00
2018-12-31T01:40:10.855Z,4.90
2018-12-31T01:42:41.838Z,4.90
2018-12-31T01:45:12.512Z,4.80
2018-12-31T01:47:43.431Z,4.90
2018-12-31T01:50:14.138Z,4.80
2018-12-31T01:52:45.030Z,4.80
2018-12-31T01:55:15.828Z,4.80
2018-12-31T01:57:46.699Z,4.80
2018-12-31T02:00:17.819Z,4.80
2018-12-31T02:02:48.564Z,4.60
2018-12-31T02:05:19.303Z,4.80
2018-12-31T02:07:49.975Z,4.80
2018-12-31T02:10:20.668Z,4.80
2018-12-31T02:12:51.379Z,4.70
2018-12-31T02:15:22.129Z,4.90
2018-12-31T02:17:52.824Z,4.80
2018-12-31T02:20:23.498Z,4.80
2018-12-31T02:22:54.243Z,4.80
2018-12-31T02:25:24.967Z,4.80
2018-12-31T02:27:55.916Z,4.80
2018-12-31T02:30:26.733Z,4.80
2018-12-31T02:32:57.387Z,4.80
2018-12-31T02:35:28.260Z,4.80
2018-12-31T02:37:58.937Z,4.70
2018-12-31T02:40:30.742Z,4.70
2018-12-31T02:43:02.807Z,4.70
2018-12-31T02:45:33.512Z,4.60
2018-12-31T02:48:04.159Z,4.60
2018-12-31T02:50:35.065Z,4.60
2018-12-31T02:53:05.680Z,4.50
2018-12-31T02:55:36.585Z,4.50
2018-12-31T02:58:07.247Z,4.40
2018-12-31T03:00:37.959Z,4.00
2018-12-31T03:03:08.792Z,4.30
2018-12-31T03:05:39.456Z,4.30
2018-12-31T03:08:10.092Z,4.30
2018-12-31T03:10:40.747Z,4.30
2018-12-31T03:13:11.447Z,4.10
2018-12-31T03:15:42.122Z,4.20
2018-12-31T03:18:13.003Z,3.90
2018-12-31T03:20:43.891Z,3.30
2018-12-31T03:23:14.641Z,3.10
2018-12-31T03:25:45.365Z,2.90
2018-12-31T03:28:16.219Z,2.70
2018-12-31T03:30:46.994Z,2.40
2018-12-31T03:33:17.686Z,2.30
2018-12-31T03:35:48.405Z,2.30
2018-12-31T03:38:19.175Z,2.20
2018-12-31T03:40:49.904Z,2.10
2018-12-31T03:43:20.601Z,2.20
2018-12-31T03:45:51.260Z,2.00
2018-12-31T03:48:22.009Z,2.10
2018-12-31T03:50:52.903Z,2.10
2018-12-31T03:53:23.599Z,2.20
2018-12-31T03:55:54.275Z,1.80
2018-12-31T03:58:25.187Z,1.90
2018-12-31T04:00:56.037Z,2.00
2018-12-31T04:03:26.805Z,1.90
2018-12-31T04:05:57.649Z,1.90
2018-12-31T04:08:28.485Z,1.90
2018-12-31T04:10:59.183Z,2.00
2018-12-31T04:13:29.860Z,1.80
2018-12-31T04:16:00.569Z,1.90
2018-12-31T04:18:31.356Z,2.00
2018-12-31T04:21:02.074Z,1.80
2018-12-31T04:23:32.837Z,2.00
2018-12-31T04:26:03.701Z,1.90
2018-12-31T04:28:34.553Z,1.80
2018-12-31T04:31:05.272Z,2.00
2018-12-31T04:33:36.077Z,1.90
2018-12-31T04:36:06.729Z,1.90
2018-12-31T04:38:37.510Z,2.00
2018-12-31T04:41:08.183Z,1.70
2018-12-31T04:43:38.844Z,1.80
2018-12-31T04:46:09.590Z,1.90
2018-12-31T04:48:40.227Z,1.80
2018-12-31T04:51:11.064Z,1.90
2018-12-31T04:53:41.733Z,1.90
2018-12-31T04:56:12.428Z,1.70
2018-12-31T04:58:43.135Z,1.90
2018-12-31T05:01:13.744Z,1.80
2018-12-31T05:03:44.468Z,1.60
2018-12-31T05:06:15.099Z,1.80
2018-12-31T05:08:45.827Z,1.80
2018-12-31T05:11:16.548Z,1.60
2018-12-31T05:13:47.235Z,1.60
2018-12-31T05:16:18.011Z,1.80
2018-12-31T05:18:48.917Z,1.20
2018-12-31T05:21:19.655Z,1.80
2018-12-31T05:23:50.312Z,1.90
2018-12-31T05:26:21.476Z,1.60
2018-12-31T05:28:52.236Z,1.70
2018-12-31T05:31:22.948Z,1.60
2018-12-31T05:33:53.587Z,1.80
2018-12-31T05:36:24.372Z,1.60
2018-12-31T05:38:55.092Z,1.70
2018-12-31T05:41:25.893Z,1.80
2018-12-31T05:43:56.527Z,1.90
2018-12-31T05:46:27.187Z,1.70
2018-12-31T05:48:57.963Z,1.80
2018-12-31T05:51:28.658Z,1.70
2018-12-31T05:53:59.371Z,1.80
2018-12-31T05:56:30.147Z,1.80
2018-12-31T05:59:00.883Z,1.70
2018-12-31T06:01:31.531Z,1.80
2018-12-31T06:04:02.185Z,1.90
2018-12-31T06:06:32.899Z,1.90
2018-12-31T06:09:04.263Z,1.90
2018-12-31T06:11:34.971Z,1.70
2018-12-31T06:14:05.699Z,1.90
2018-12-31T06:16:36.428Z,1.80
2018-12-31T06:19:07.099Z,2.00
2018-12-31T06:21:37.779Z,2.00
2018-12-31T06:24:08.420Z,1.80
2018-12-31T06:26:39.190Z,2.00
2018-12-31T06:29:10.096Z,1.80
2018-12-31T06:31:40.734Z,1.80
2018-12-31T06:34:11.553Z,1.90
2018-12-31T06:36:42.199Z,2.10
2018-12-31T06:39:12.945Z,1.90
2018-12-31T06:41:43.616Z,1.90
2018-12-31T06:44:14.274Z,2.00
2018-12-31T06:46:45.012Z,1.80
2018-12-31T06:49:15.716Z,1.90
2018-12-31T06:51:46.576Z,1.80
2018-12-31T06:54:17.499Z,1.90
2018-12-31T06:56:48.218Z,1.90
2018-12-31T06:59:18.945Z,2.20
2018-12-31T07:01:49.705Z,2.00
2018-12-31T07:04:20.364Z,1.90
2018-12-31T07:06:51.095Z,1.80
2018-12-31T07:09:21.801Z,2.00
2018-12-31T07:11:52.470Z,2.00
2018-12-31T07:14:23.185Z,2.00
2018-12-31T07:16:54.063Z,2.20
2018-12-31T07:19:24.739Z,2.00
2018-12-31T07:21:55.446Z,2.40
2018-12-31T07:24:26.150Z,2.10
2018-12-31T07:26:56.874Z,2.10
2018-12-31T07:29:28.114Z,2.20
2018-12-31T07:31:58.879Z,2.30
2018-12-31T07:34:29.681Z,2.00
2018-12-31T07:37:00.461Z,2.10
2018-12-31T07:39:31.184Z,1.90
2018-12-31T07:42:01.901Z,2.00
2018-12-31T07:44:32.544Z,2.00
2018-12-31T07:47:03.500Z,2.10
2018-12-31T07:49:34.155Z,1.90
2018-12-31T07:52:04.920Z,1.90
2018-12-31T07:54:35.643Z,2.00
2018-12-31T07:57:06.341Z,2.10
2018-12-31T07:59:37.237Z,1.90
2018-12-31T08:02:07.891Z,1.90
2018-12-31T08:04:38.547Z,2.20
2018-12-31T08:07:09.314Z,2.00
2018-12-31T08:09:39.959Z,2.20
2018-12-31T08:12:10.764Z,1.90
2018-12-31T08:14:41.487Z,2.20
2018-12-31T08:17:13.150Z,2.30
2018-12-31T08:19:43.843Z,2.40
2018-12-31T08:22:14.575Z,2.40
2018-12-31T08:24:45.471Z,2.20
2018-12-31T08:27:16.323Z,2.10
2018-12-31T08:29:47.036Z,2.30
2018-12-31T08:32:17.724Z,2.10
2018-12-31T08:34:48.541Z,2.10
2018-12-31T08:37:19.263Z,2.30
2018-12-31T08:39:49.912Z,2.30
2018-12-31T08:42:20.603Z,2.30
2018-12-31T08:44:51.622Z,2.20
2018-12-31T08:47:22.297Z,2.20
2018-12-31T08:49:53.031Z,1.90
2018-12-31T08:52:24.007Z,2.10
2018-12-31T08:55:06.211Z,2.50
2018-12-31T08:57:36.960Z,2.40
2018-12-31T09:00:08.504Z,2.40
2018-12-31T09:02:39.158Z,2.50
2018-12-31T09:05:09.890Z,2.50
2018-12-31T09:07:40.532Z,2.60
2018-12-31T09:10:11.284Z,2.50
2018-12-31T09:12:41.932Z,2.60
2018-12-31T09:15:12.676Z,2.60
2018-12-31T09:17:44.400Z,2.60
2018-12-31T09:20:15.216Z,2.80
2018-12-31T09:22:45.955Z,2.50
2018-12-31T09:25:16.613Z,2.60
2018-12-31T09:27:47.344Z,2.90
2018-12-31T09:30:18.086Z,2.70
2018-12-31T09:32:48.817Z,2.90
2018-12-31T09:35:19.513Z,3.10
2018-12-31T09:37:50.348Z,3.10
2018-12-31T09:40:21.120Z,2.80
2018-12-31T09:42:51.858Z,2.80
2018-12-31T09:45:22.532Z,3.20
2018-12-31T09:47:53.433Z,3.20
2018-12-31T09:50:24.264Z,2.90
2018-12-31T09:52:54.936Z,3.00
2018-12-31T09:55:25.785Z,3.30
2018-12-31T09:57:56.475Z,3.50
2018-12-31T10:00:27.217Z,3.20
2018-12-31T10:02:57.916Z,2.90
2018-12-31T10:05:28.678Z,3.10
2018-12-31T10:07:59.390Z,3.50
2018-12-31T10:10:30.095Z,3.70
2018-12-31T10:13:00.855Z,3.30
2018-12-31T10:15:31.813Z,3.30
2018-12-31T10:18:02.506Z,3.40
2018-12-31T10:20:33.229Z,3.60
2018-12-31T10:23:03.914Z,3.30
2018-12-31T10:25:34.833Z,3.50
2018-12-31T10:28:05.518Z,3.40
2018-12-31T10:30:36.246Z,3.50
2018-12-31T10:33:07.023Z,3.50
2018-12-31T10:35:38.225Z,3.50
2018-12-31T10:38:08.899Z,3.40
2018-12-31T10:40:39.617Z,3.40
2018-12-31T10:43:10.317Z,3.50
2018-12-31T10:45:41.131Z,3.50
2018-12-31T10:48:11.832Z,3.60
2018-12-31T10:50:43.482Z,3.50
2018-12-31T10:53:14.534Z,3.40
2018-12-31T10:55:45.210Z,3.40
2018-12-31T10:58:15.948Z,3.40
2018-12-31T11:00:46.716Z,3.30
2018-12-31T11:03:17.339Z,3.50
2018-12-31T11:05:48.291Z,3.50
2018-12-31T11:08:18.946Z,3.30
2018-12-31T11:10:49.684Z,3.20
2018-12-31T11:13:20.443Z,3.20
2018-12-31T11:15:51.108Z,3.20
2018-12-31T11:18:21.866Z,3.10
2018-12-31T11:20:52.549Z,3.10
2018-12-31T11:23:23.275Z,3.20
2018-12-31T11:25:53.987Z,3.30
2018-12-31T11:28:24.759Z,3.10
2018-12-31T11:30:55.618Z,3.20
2018-12-31T11:33:26.252Z,3.10
2018-12-31T11:35:56.979Z,3.50
2018-12-31T11:38:27.635Z,3.20
2018-12-31T11:40:58.513Z,3.50
2018-12-31T11:43:29.244Z,3.40
2018-12-31T11:46:00.052Z,3.30
2018-12-31T11:48:30.707Z,3.40
2018-12-31T11:51:01.492Z,3.40
2018-12-31T11:53:32.194Z,3.50
2018-12-31T11:56:02.927Z,3.50
2018-12-31T11:58:33.752Z,3.10
2018-12-31T12:01:04.429Z,3.40
2018-12-31T12:03:35.149Z,3.40
2018-12-31T12:06:05.996Z,3.40
2018-12-31T12:08:36.690Z,3.30
2018-12-31T12:11:07.430Z,3.10
2018-12-31T12:13:38.264Z,3.30
2018-12-31T12:16:09.004Z,3.10
2018-12-31T12:18:39.666Z,3.30
2018-12-31T12:21:10.378Z,3.20
2018-12-31T12:23:41.334Z,3.10
2018-12-31T12:26:12.000Z,3.20
2018-12-31T12:28:42.740Z,3.20
2018-12-31T12:31:13.534Z,3.10
2018-12-31T12:33:44.362Z,3.10
2018-12-31T12:36:15.082Z,3.10
2018-12-31T12:38:45.912Z,3.10
2018-12-31T12:41:16.670Z,3.10
2018-12-31T12:43:47.576Z,3.00
2018-12-31T12:46:18.392Z,2.80
2018-12-31T12:48:49.035Z,3.10
2018-12-31T12:51:19.834Z,3.20
2018-12-31T12:53:50.591Z,3.20
2018-12-31T12:56:21.739Z,3.30
2018-12-31T12:58:52.584Z,3.20
2018-12-31T13:01:23.247Z,3.10
2018-12-31T13:03:54.100Z,3.10
2018-12-31T13:06:24.761Z,3.10
2018-12-31T13:08:55.434Z,2.90
2018-12-31T13:11:26.174Z,2.90
2018-12-31T13:13:56.875Z,2.80
2018-12-31T13:16:27.534Z,2.70
2018-12-31T13:18:58.415Z,2.60
2018-12-31T13:21:29.076Z,2.80
2018-12-31T13:23:59.941Z,2.90
2018-12-31T13:26:30.622Z,2.70
2018-12-31T13:29:01.379Z,2.90
2018-12-31T13:31:32.173Z,2.80
2018-12-31T13:34:02.811Z,2.70
2018-12-31T13:36:33.545Z,2.80
2018-12-31T13:39:05.336Z,2.90
2018-12-31T13:41:36.149Z,2.90
2018-12-31T13:44:06.911Z,2.80
2018-12-31T13:46:37.571Z,2.80
2018-12-31T13:49:08.408Z,2.90
2018-12-31T13:51:39.523Z,2.70
2018-12-31T13:54:10.241Z,2.70
2018-12-31T13:56:41.047Z,3.10
2018-12-31T13:59:11.768Z,2.70
2018-12-31T14:01:42.862Z,3.00
2018-12-31T14:04:13.801Z,2.80
2018-12-31T14:06:44.980Z,2.90
2018-12-31T14:09:15.624Z,3.00
2018-12-31T14:11:46.487Z,3.00
2018-12-31T14:14:17.304Z,2.80
2018-12-31T14:16:48.160Z,2.70
2018-12-31T14:19:18.901Z,2.80
2018-12-31T14:21:49.598Z,2.40
2018-12-31T14:24:20.695Z,2.50
2018-12-31T14:26:51.442Z,2.60
2018-12-31T14:29:22.154Z,2.50
2018-12-31T14:31:52.877Z,2.50
2018-12-31T14:34:23.692Z,2.40
2018-12-31T14:36:54.630Z,2.40
2018-12-31T14:39:25.293Z,2.50
2018-12-31T14:41:56.071Z,2.50
2018-12-31T14:44:26.812Z,2.50
2018-12-31T14:46:57.929Z,2.60
2018-12-31T14:49:28.583Z,2.30
2018-12-31T14:51:59.299Z,2.30
2018-12-31T14:54:29.956Z,2.30
2018-12-31T14:57:00.643Z,2.10
2018-12-31T14:59:31.468Z,2.10
2018-12-31T15:02:02.191Z,2.20
2018-12-31T15:04:33.005Z,2.20
2018-12-31T15:07:03.849Z,2.30
2018-12-31T15:09:34.504Z,2.30
2018-12-31T15:12:05.392Z,2.40
2018-12-31T15:14:36.249Z,2.50
2018-12-31T15:17:06.988Z,2.60
2018-12-31T15:19:38.149Z,2.60
2018-12-31T15:22:08.878Z,2.60
2018-12-31T15:24:39.653Z,2.50
2018-12-31T15:27:10.289Z,2.50
2018-12-31T15:29:41.011Z,2.50
2018-12-31T15:32:11.776Z,2.60
2018-12-31T15:34:42.431Z,2.40
2018-12-31T15:37:13.071Z,2.40
2018-12-31T15:39:43.819Z,2.30
2018-12-31T15:42:14.854Z,2.30
2018-12-31T15:45:04.758Z,2.60
2018-12-31T15:47:35.489Z,2.30
2018-12-31T15:50:06.573Z,2.20
2018-12-31T15:52:37.249Z,2.30
2018-12-31T15:55:08.000Z,2.30
2018-12-31T15:57:38.799Z,2.50
2018-12-31T16:00:11.651Z,2.30
2018-12-31T16:02:42.350Z,2.30
2018-12-31T16:05:13.245Z,2.50
2018-12-31T16:07:45.946Z,2.40
2018-12-31T16:10:16.338Z,2.20
2018-12-31T16:12:47.333Z,2.30
2018-12-31T16:15:18.167Z,2.30
2018-12-31T16:17:48.917Z,2.30
2018-12-31T16:20:19.571Z,2.40
2018-12-31T16:22:50.235Z,2.30
2018-12-31T16:25:20.960Z,2.20
2018-12-31T16:27:51.824Z,2.20
2018-12-31T16:30:22.456Z,2.50
2018-12-31T16:32:53.193Z,2.40
2018-12-31T16:35:24.058Z,2.30
2018-12-31T16:37:54.716Z,2.30
2018-12-31T16:40:25.625Z,2.40
2018-12-31T16:42:56.295Z,2.40
2018-12-31T16:45:27.029Z,2.50
2018-12-31T16:47:58.043Z,2.40
2018-12-31T16:50:28.846Z,2.40
2018-12-31T16:52:59.508Z,2.30
2018-12-31T16:55:30.237Z,2.30
2018-12-31T16:58:00.964Z,2.40
2018-12-31T17:00:34.913Z,2.30
2018-12-31T17:03:24.769Z,2.30
2018-12-31T17:05:55.492Z,2.30
2018-12-31T17:08:26.271Z,2.10
2018-12-31T17:10:56.906Z,2.20
2018-12-31T17:13:27.555Z,2.10
2018-12-31T17:15:59.326Z,2.20
2018-12-31T17:18:30.043Z,2.10
2018-12-31T17:21:02.130Z,2.10
2018-12-31T17:23:32.863Z,2.10
2018-12-31T17:26:03.679Z,2.00
2018-12-31T17:28:34.676Z,2.20
2018-12-31T17:31:05.315Z,2.20
2018-12-31T17:33:36.343Z,2.00
2018-12-31T17:36:07.041Z,2.00
2018-12-31T17:38:37.759Z,2.00
2018-12-31T17:41:08.525Z,2.00
2018-12-31T17:43:39.190Z,1.90
2018-12-31T17:46:09.961Z,2.00
2018-12-31T17:48:40.736Z,2.00
2018-12-31T17:51:11.620Z,2.20
2018-12-31T17:53:42.348Z,2.20
2018-12-31T17:56:13.016Z,2.00
2018-12-31T17:58:43.736Z,2.30
2018-12-31T18:01:14.436Z,2.10
2018-12-31T18:03:45.166Z,2.10
2018-12-31T18:06:15.926Z,2.00
2018-12-31T18:08:46.600Z,2.20
2018-12-31T18:11:17.517Z,2.10
2018-12-31T18:13:48.591Z,1.90
2018-12-31T18:16:19.329Z,2.10
2018-12-31T18:18:50.057Z,2.10
2018-12-31T18:21:20.827Z,2.10
2018-12-31T18:23:51.487Z,2.00
2018-12-31T18:26:22.224Z,2.00
2018-12-31T18:28:52.910Z,2.10
2018-12-31T18:31:23.639Z,2.00
2018-12-31T18:33:54.548Z,2.30
2018-12-31T18:36:25.307Z,2.10
2018-12-31T18:38:55.991Z,2.20
2018-12-31T18:41:26.853Z,2.10
2018-12-31T18:43:57.510Z,2.10
2018-12-31T18:46:28.474Z,2.20
2018-12-31T18:48:59.152Z,2.10
2018-12-31T18:51:29.893Z,2.10
2018-12-31T18:54:00.614Z,2.20
2018-12-31T18:56:31.262Z,2.20
2018-12-31T18:59:02.387Z,2.20
2018-12-31T19:01:33.036Z,2.10
2018-12-31T19:04:03.696Z,2.10
2018-12-31T19:06:34.540Z,2.20
2018-12-31T19:09:06.449Z,1.90
2018-12-31T19:11:37.187Z,1.70
2018-12-31T19:14:07.848Z,1.60
2018-12-31T19:16:38.532Z,1.70
2018-12-31T19:19:09.198Z,1.50
2018-12-31T19:21:39.946Z,1.50
2018-12-31T19:24:10.731Z,1.30
2018-12-31T19:26:41.371Z,1.30
2018-12-31T19:29:12.161Z,1.00
2018-12-31T19:31:44.265Z,0.70
2018-12-31T19:34:15.160Z,0.80
2018-12-31T19:36:45.836Z,0.50
2018-12-31T19:39:16.518Z,0.40
2018-12-31T19:41:47.351Z,0.10
2018-12-31T19:44:18.152Z,0.00
2018-12-31T19:46:48.918Z,-0.20
2018-12-31T19:49:19.726Z,-0.20
2018-12-31T19:51:50.547Z,-0.30
2018-12-31T19:54:21.207Z,-0.30
2018-12-31T19:56:51.895Z,-0.10
2018-12-31T19:59:22.567Z,-0.10
2018-12-31T20:01:53.336Z,-0.30
2018-12-31T20:04:24.151Z,-0.20
2018-12-31T20:07:01.204Z,-0.20
2018-12-31T20:09:27.315Z,0.10
2018-12-31T20:11:58.230Z,0.00
2018-12-31T20:14:28.900Z,0.20
2018-12-31T20:16:59.555Z,0.30
2018-12-31T20:19:30.268Z,0.50
2018-12-31T20:22:00.940Z,0.60
2018-12-31T20:24:31.644Z,0.90
2018-12-31T20:27:02.356Z,0.70
2018-12-31T20:29:33.412Z,0.90
2018-12-31T20:32:04.084Z,1.10
2018-12-31T20:34:34.776Z,1.20
2018-12-31T20:37:05.583Z,1.20
2018-12-31T20:39:36.248Z,1.10
2018-12-31T20:42:07.370Z,1.30
2018-12-31T20:44:38.133Z,1.30
2018-12-31T20:47:08.787Z,1.30
2018-12-31T20:49:39.521Z,1.30
2018-12-31T20:52:10.208Z,1.30
2018-12-31T20:54:41.220Z,1.50
2018-12-31T20:57:11.943Z,1.50
2018-12-31T20:59:42.752Z,1.40
2018-12-31T21:02:13.409Z,1.30
2018-12-31T21:04:44.127Z,1.40
2018-12-31T21:07:14.796Z,1.30
2018-12-31T21:09:45.501Z,1.40
2018-12-31T21:12:16.209Z,1.00
2018-12-31T21:14:46.925Z,1.50
2018-12-31T21:17:18.152Z,1.60
2018-12-31T21:19:48.824Z,1.30
2018-12-31T21:22:19.581Z,1.40
2018-12-31T21:24:50.290Z,1.50
2018-12-31T21:27:20.940Z,1.40
2018-12-31T21:29:51.642Z,1.40
2018-12-31T21:32:22.303Z,1.30
2018-12-31T21:34:52.990Z,1.60
2018-12-31T21:37:23.889Z,1.40
2018-12-31T21:39:54.552Z,1.30
2018-12-31T21:42:25.239Z,1.60
2018-12-31T21:44:56.088Z,1.30
2018-12-31T21:47:26.816Z,1.20
2018-12-31T21:49:57.487Z,1.40
2018-12-31T21:52:28.552Z,1.30
2018-12-31T21:54:59.231Z,1.60
2018-12-31T21:57:29.945Z,1.50
2018-12-31T22:00:00.648Z,1.30
2018-12-31T22:02:31.324Z,1.60
2018-12-31T22:05:02.061Z,1.80
2018-12-31T22:07:32.739Z,1.40
2018-12-31T22:10:03.497Z,1.60
2018-12-31T22:12:34.156Z,1.80
2018-12-31T22:15:04.895Z,1.60
2018-12-31T22:17:35.894Z,1.60
2018-12-31T22:20:07.767Z,1.70
2018-12-31T22:22:38.487Z,1.80
2018-12-31T22:25:09.227Z,1.70
2018-12-31T22:27:39.979Z,1.60
2018-12-31T22:30:11.119Z,1.60
2018-12-31T22:32:41.827Z,1.70
2018-12-31T22:35:12.527Z,1.60
2018-12-31T22:37:43.276Z,1.70
2018-12-31T22:40:14.094Z,1.70
2018-12-31T22:42:44.808Z,1.80
2018-12-31T22:45:15.507Z,1.60
2018-12-31T22:47:46.169Z,1.60
2018-12-31T22:50:17.492Z,1.70
2018-12-31T22:52:48.388Z,1.70
2018-12-31T22:55:19.143Z,1.70
2018-12-31T22:57:49.855Z,1.80
2018-12-31T23:00:26.837Z,1.50
2018-12-31T23:02:57.731Z,1.80
2018-12-31T23:05:29.541Z,1.70
2018-12-31T23:08:00.228Z,1.70
2018-12-31T23:10:30.932Z,1.60
2018-12-31T23:13:01.597Z,1.30
2018-12-31T23:15:34.283Z,1.50
2018-12-31T23:18:05.039Z,1.50
2018-12-31T23:20:35.872Z,1.60
2018-12-31T23:23:06.508Z,1.10
2018-12-31T23:25:37.228Z,1.50
2018-12-31T23:28:07.911Z,1.50
2018-12-31T23:30:38.999Z,1.60
2018-12-31T23:33:09.768Z,1.50
2018-12-31T23:35:40.427Z,1.50
2018-12-31T23:38:11.188Z,1.60
2018-12-31T23:40:41.840Z,1.60
2018-12-31T23:43:12.555Z,1.50
2018-12-31T23:45:43.732Z,1.70
2018-12-31T23:48:14.430Z,1.50
2018-12-31T23:50:45.115Z,1.50
2018-12-31T23:53:15.932Z,1.50
2018-12-31T23:55:46.660Z,1.60
2018-12-31T23:58:17.431Z,1.70
